createdAt,value
2023-04-02T00:03:10.525Z,4.15
2023-04-02T00:07:33.890Z,4.32
2023-04-02T00:11:54.986Z,4.47
2023-04-02T00:16:15.992Z,3.53
2023-04-02T00:20:36.453Z,3.95
2023-04-02T00:24:54.742Z,3.67
2023-04-02T00:29:12.335Z,3.17
2023-04-02T00:33:31.818Z,3.08
2023-04-02T00:37:48.206Z,2.75
2023-04-02T00:42:07.379Z,2.45
2023-04-02T00:46:31.031Z,2.85
2023-04-02T00:50:48.298Z,2.62
2023-04-02T00:55:13.454Z,2.60
2023-04-02T00:59:31.403Z,2.50
2023-04-02T01:04:02.210Z,2.28
2023-04-02T01:08:24.318Z,2.35
2023-04-02T01:13:09.328Z,2.20
2023-04-02T01:17:54.831Z,2.40
2023-04-02T01:22:23.397Z,2.58
2023-04-02T01:26:58.117Z,2.22
2023-04-02T01:31:15.509Z,2.00
2023-04-02T01:35:36.516Z,2.60
2023-04-02T01:40:08.139Z,2.20
2023-04-02T01:44:37.811Z,2.40
2023-04-02T01:49:01.126Z,2.20
2023-04-02T01:53:19.300Z,2.40
2023-04-02T01:57:36.206Z,2.20
2023-04-02T02:02:04.009Z,2.20
2023-04-02T02:06:20.679Z,2.30
2023-04-02T02:10:39.424Z,2.10
2023-04-02T02:14:55.691Z,2.20
2023-04-02T02:19:36.532Z,2.17
2023-04-02T02:23:52.899Z,2.10
2023-04-02T02:28:30.476Z,2.10
2023-04-02T02:33:00.085Z,2.30
2023-04-02T02:37:25.131Z,2.35
2023-04-02T02:42:05.282Z,2.15
2023-04-02T02:46:22.717Z,2.10
2023-04-02T02:50:39.623Z,2.28
2023-04-02T02:55:27.654Z,2.25
2023-04-02T02:59:45.306Z,2.30
2023-04-02T03:04:02.120Z,2.03
2023-04-02T03:08:37.135Z,2.30
2023-04-02T03:13:02.256Z,2.22
2023-04-02T03:17:30.558Z,2.40
2023-04-02T03:22:04.517Z,2.40
2023-04-02T03:27:11.633Z,2.40
2023-04-02T03:31:40.131Z,2.15
2023-04-02T03:36:13.550Z,2.40
2023-04-02T03:40:38.842Z,2.40
2023-04-02T03:45:25.834Z,2.30
2023-04-02T03:49:48.178Z,2.40
2023-04-02T03:54:04.826Z,2.40
2023-04-02T03:58:47.179Z,2.30
2023-04-02T04:03:32.418Z,2.40
2023-04-02T04:07:51.803Z,2.60
2023-04-02T04:12:35.954Z,2.30
2023-04-02T04:17:04.679Z,2.50
2023-04-02T04:21:31.315Z,2.50
2023-04-02T04:25:50.792Z,2.60
2023-04-02T04:30:23.175Z,2.40
2023-04-02T04:34:47.013Z,2.25
2023-04-02T04:39:08.749Z,2.58
2023-04-02T04:44:17.834Z,2.55
2023-04-02T04:48:55.915Z,2.60
2023-04-02T04:53:23.235Z,2.50
2023-04-02T04:57:41.760Z,2.42
2023-04-02T05:02:07.255Z,2.62
2023-04-02T05:06:43.581Z,2.50
2023-04-02T05:11:03.837Z,2.60
2023-04-02T05:15:54.068Z,2.87
2023-04-02T05:20:18.414Z,3.00
2023-04-02T05:24:38.136Z,3.00
2023-04-02T05:29:00.458Z,2.90
2023-04-02T05:33:19.648Z,2.97
2023-04-02T05:37:39.453Z,2.90
2023-04-02T05:42:04.459Z,3.10
2023-04-02T05:46:28.782Z,2.78
2023-04-02T05:50:49.362Z,2.90
2023-04-02T05:55:17.506Z,2.40
2023-04-02T05:59:41.098Z,3.42
2023-04-02T06:04:15.512Z,2.75
2023-04-02T06:08:39.000Z,4.37
2023-04-02T06:17:19.159Z,3.58
2023-04-02T06:21:35.569Z,14.77
2023-04-02T06:26:03.755Z,3.37
2023-04-02T06:30:23.872Z,2.90
2023-04-02T06:34:42.047Z,2.87
2023-04-02T06:39:03.545Z,2.40
2023-04-02T06:43:22.487Z,2.50
2023-04-02T06:47:44.757Z,2.20
2023-04-02T06:52:02.705Z,4.87
2023-04-02T06:56:32.222Z,1.95
2023-04-02T07:00:50.346Z,1.75
2023-04-02T07:05:12.485Z,2.00
2023-04-02T07:09:28.747Z,1.62
2023-04-02T07:13:45.794Z,1.70
2023-04-02T07:18:02.085Z,1.62
2023-04-02T07:22:19.133Z,1.73
2023-04-02T07:26:35.367Z,1.77
2023-04-02T07:30:52.261Z,2.00
2023-04-02T07:35:10.451Z,1.70
2023-04-02T07:39:26.736Z,1.80
2023-04-02T07:43:43.469Z,1.98
2023-04-02T07:48:09.886Z,2.00
2023-04-02T07:52:26.137Z,1.83
2023-04-02T07:56:42.616Z,1.75
2023-04-02T08:01:00.834Z,1.90
2023-04-02T08:05:18.147Z,2.40
2023-04-02T08:09:34.389Z,2.00
2023-04-02T08:13:50.832Z,2.03
2023-04-02T08:18:07.208Z,2.33
2023-04-02T08:22:23.520Z,2.05
2023-04-02T08:26:39.756Z,2.05
2023-04-02T08:30:56.223Z,1.90
2023-04-02T08:35:14.958Z,2.20
2023-04-02T08:39:33.440Z,2.15
2023-04-02T08:44:22.451Z,2.60
2023-04-02T08:48:42.688Z,2.30
2023-04-02T08:53:02.870Z,2.58
2023-04-02T08:57:42.173Z,2.85
2023-04-02T09:02:08.075Z,2.30
2023-04-02T09:06:24.764Z,2.70
2023-04-02T09:10:46.145Z,2.85
2023-04-02T09:15:18.764Z,2.75
2023-04-02T09:19:41.708Z,3.30
2023-04-02T09:23:58.213Z,3.15
2023-04-02T09:28:15.335Z,3.05
2023-04-02T09:32:48.219Z,2.92
2023-04-02T09:37:17.264Z,3.22
2023-04-02T09:41:36.986Z,3.33
2023-04-02T09:46:23.719Z,3.22
2023-04-02T09:50:40.319Z,3.33
2023-04-02T09:55:15.642Z,3.28
2023-04-02T09:59:31.884Z,3.10
2023-04-02T10:03:48.145Z,3.05
2023-04-02T10:08:19.718Z,3.70
2023-04-02T10:12:38.957Z,3.60
2023-04-02T10:16:58.237Z,3.55
2023-04-02T10:21:21.577Z,3.30
2023-04-02T10:25:42.997Z,2.75
2023-04-02T10:30:11.308Z,3.08
2023-04-02T10:34:58.895Z,2.92
2023-04-02T10:39:21.202Z,2.97
2023-04-02T10:44:12.791Z,2.60
2023-04-02T10:49:15.875Z,2.87
2023-04-02T10:53:55.027Z,2.30
2023-04-02T10:58:22.778Z,2.90
2023-04-02T11:03:05.016Z,3.08
2023-04-02T11:07:27.365Z,3.10
2023-04-02T11:11:46.763Z,2.58
2023-04-02T11:16:04.006Z,2.97
2023-04-02T11:20:43.528Z,2.65
2023-04-02T11:25:00.810Z,3.00
2023-04-02T11:29:26.353Z,2.97
2023-04-02T11:33:46.167Z,2.92
2023-04-02T11:38:10.751Z,2.67
2023-04-02T11:46:45.711Z,2.30
2023-04-02T11:51:10.979Z,2.40
2023-04-02T11:55:35.321Z,2.65
2023-04-02T12:00:33.384Z,1.85
2023-04-02T12:05:19.580Z,1.95
2023-04-02T12:09:43.751Z,1.83
2023-04-02T12:14:00.872Z,1.33
2023-04-02T12:18:23.015Z,1.70
2023-04-02T12:22:46.273Z,1.70
2023-04-02T12:31:33.848Z,1.50
2023-04-02T12:36:11.209Z,1.60
2023-04-02T12:40:28.446Z,1.50
2023-04-02T12:44:49.706Z,1.67
2023-04-02T12:49:28.141Z,1.00
2023-04-02T12:53:49.539Z,1.30
2023-04-02T12:58:24.216Z,1.30
2023-04-02T13:03:00.192Z,1.20
2023-04-02T13:07:21.257Z,1.37
2023-04-02T13:11:39.392Z,1.40
2023-04-02T13:16:15.130Z,1.50
2023-04-02T13:20:36.090Z,2.12
2023-04-02T13:24:56.140Z,2.50
2023-04-02T13:29:36.438Z,1.42
2023-04-02T13:33:52.741Z,1.60
2023-04-02T13:38:09.308Z,1.75
2023-04-02T13:42:25.523Z,1.70
2023-04-02T13:46:41.714Z,1.95
2023-04-02T13:50:58.089Z,2.20
2023-04-02T13:55:15.564Z,2.40
2023-04-02T13:59:31.824Z,2.28
2023-04-02T14:03:48.157Z,2.33
2023-04-02T14:08:22.154Z,2.40
2023-04-02T14:13:04.495Z,2.20
2023-04-02T14:17:36.381Z,1.90
2023-04-02T14:22:06.437Z,2.00
2023-04-02T14:26:43.559Z,2.30
2023-04-02T14:31:16.762Z,2.47
2023-04-02T14:35:44.555Z,2.50
2023-04-02T14:40:22.277Z,2.53
2023-04-02T14:44:58.315Z,2.70
2023-04-02T14:49:44.188Z,3.25
2023-04-02T14:54:12.634Z,3.40
2023-04-02T14:58:34.765Z,2.70
2023-04-02T15:03:12.500Z,3.47
2023-04-02T15:07:39.588Z,3.40
2023-04-02T15:12:00.178Z,3.17
2023-04-02T15:16:23.005Z,3.15
2023-04-02T15:20:47.231Z,4.25
2023-04-02T15:25:06.947Z,3.30
2023-04-02T15:29:44.854Z,2.85
2023-04-02T15:34:14.068Z,2.20
2023-04-02T15:38:40.186Z,2.85
2023-04-02T15:43:18.913Z,2.10
2023-04-02T15:47:43.396Z,2.10
2023-04-02T15:52:12.665Z,2.05
2023-04-02T15:56:36.381Z,1.85
2023-04-02T16:01:08.677Z,1.40
2023-04-02T16:05:41.625Z,1.00
2023-04-02T16:10:00.708Z,1.10
2023-04-02T16:14:28.060Z,1.05
2023-04-02T16:18:59.504Z,1.00
2023-04-02T16:23:20.831Z,1.00
2023-04-02T16:27:43.309Z,1.15
2023-04-02T16:31:59.620Z,1.30
2023-04-02T16:36:37.876Z,1.02
2023-04-02T16:41:19.920Z,1.60
2023-04-02T16:46:04.541Z,1.80
2023-04-02T16:50:47.185Z,1.45
2023-04-02T16:55:24.099Z,1.95
2023-04-02T17:00:11.915Z,1.83
2023-04-02T17:05:03.299Z,2.08
2023-04-02T17:09:49.041Z,2.20
2023-04-02T17:14:09.957Z,2.25
2023-04-02T17:18:26.663Z,2.53
2023-04-02T17:22:43.275Z,2.40
2023-04-02T17:27:07.601Z,2.28
2023-04-02T17:31:26.056Z,2.00
2023-04-02T17:36:00.907Z,2.10
2023-04-02T17:40:40.247Z,2.30
2023-04-02T17:45:23.687Z,2.30
2023-04-02T17:49:58.392Z,2.20
2023-04-02T17:54:27.932Z,2.20
2023-04-02T17:59:17.502Z,2.20
2023-04-02T18:04:07.784Z,2.05
2023-04-02T18:08:33.302Z,2.00
2023-04-02T18:13:07.080Z,1.95
2023-04-02T18:17:32.555Z,2.37
2023-04-02T18:22:23.094Z,2.20
2023-04-02T18:27:15.959Z,2.42
2023-04-02T18:31:47.477Z,2.72
2023-04-02T18:36:28.187Z,2.60
2023-04-02T18:41:16.335Z,2.53
2023-04-02T18:45:41.634Z,3.40
2023-04-02T18:50:15.984Z,3.50
2023-04-02T18:54:34.366Z,3.92
2023-04-02T18:59:16.791Z,3.78
2023-04-02T19:03:43.513Z,4.45
2023-04-02T19:08:19.974Z,4.37
2023-04-02T19:12:36.406Z,4.95
2023-04-02T19:17:11.478Z,3.78
2023-04-02T19:22:05.432Z,3.10
2023-04-02T19:31:24.971Z,2.50
2023-04-02T19:36:08.715Z,2.42
2023-04-02T19:44:50.633Z,3.17
2023-04-02T19:49:32.824Z,2.75
2023-04-02T19:53:49.044Z,2.60
2023-04-02T19:58:17.644Z,2.70
2023-04-02T20:02:35.800Z,2.50
2023-04-02T20:06:52.468Z,3.15
2023-04-02T20:11:08.848Z,3.12
2023-04-02T20:15:25.099Z,3.75
2023-04-02T20:19:41.494Z,3.10
2023-04-02T20:23:57.717Z,3.20
2023-04-02T20:28:14.374Z,3.40
2023-04-02T20:32:30.758Z,4.25
2023-04-02T20:36:47.128Z,4.03
2023-04-02T20:41:04.694Z,4.40
2023-04-02T20:45:21.108Z,4.82
2023-04-02T20:49:37.829Z,5.30
2023-04-02T20:53:54.652Z,4.87
2023-04-02T20:58:10.787Z,4.72
2023-04-02T21:02:27.047Z,4.62
2023-04-02T21:06:43.432Z,4.25
2023-04-02T21:11:06.722Z,4.82
2023-04-02T21:15:23.025Z,4.20
2023-04-02T21:19:39.247Z,4.55
2023-04-02T21:24:00.556Z,5.07
2023-04-02T21:28:16.888Z,4.43
2023-04-02T21:32:33.711Z,4.35
2023-04-02T21:36:50.705Z,4.22
2023-04-02T21:41:28.413Z,4.65
2023-04-02T21:45:44.678Z,4.62
2023-04-02T21:50:01.008Z,4.70
2023-04-02T21:54:17.859Z,5.43
2023-04-02T21:58:34.732Z,5.12
2023-04-02T22:02:51.364Z,5.12
2023-04-02T22:07:07.641Z,4.65
2023-04-02T22:11:29.741Z,4.55
2023-04-02T22:15:46.060Z,5.03
2023-04-02T22:20:02.309Z,4.85
2023-04-02T22:24:19.488Z,4.85
2023-04-02T22:28:36.490Z,4.93
2023-04-02T22:32:52.775Z,4.87
2023-04-02T22:37:09.141Z,4.65
2023-04-02T22:41:28.237Z,5.07
2023-04-02T22:45:48.285Z,5.03
2023-04-02T22:50:04.806Z,5.37
2023-04-02T22:54:21.126Z,5.45
2023-04-02T22:58:38.037Z,5.10
2023-04-02T23:02:54.307Z,5.00
2023-04-02T23:07:10.589Z,5.30
2023-04-02T23:11:28.461Z,4.90
2023-04-02T23:15:47.490Z,5.20
2023-04-02T23:20:04.871Z,5.05
2023-04-02T23:24:21.112Z,5.12
2023-04-02T23:28:39.092Z,4.62
2023-04-02T23:32:55.408Z,5.25
2023-04-02T23:37:11.957Z,5.35
2023-04-02T23:41:29.803Z,5.18
2023-04-02T23:45:49.972Z,5.22
2023-04-02T23:50:06.610Z,5.07
2023-04-02T23:54:23.018Z,5.32
2023-04-02T23:58:39.375Z,5.47
